createdAt,value
2022-08-18T00:01:16.563Z,2.30
2022-08-18T00:06:21.806Z,2.47
2022-08-18T00:11:25.523Z,2.73
2022-08-18T00:16:29.273Z,2.47
2022-08-18T00:21:34.341Z,2.47
2022-08-18T00:26:38.071Z,2.57
2022-08-18T00:31:41.713Z,2.13
2022-08-18T00:36:47.122Z,2.13
2022-08-18T00:41:50.797Z,2.63
2022-08-18T00:46:54.850Z,2.53
2022-08-18T00:52:01.374Z,2.30
2022-08-18T00:57:08.057Z,2.13
2022-08-18T01:02:17.321Z,1.83
2022-08-18T01:07:29.820Z,2.40
2022-08-18T01:12:44.877Z,2.27
2022-08-18T01:18:07.699Z,2.73
2022-08-18T01:23:14.786Z,2.57
2022-08-18T01:28:19.924Z,2.50
2022-08-18T01:33:26.742Z,2.67
2022-08-18T01:38:35.382Z,2.80
2022-08-18T01:43:39.627Z,2.47
2022-08-18T01:48:43.345Z,2.37
2022-08-18T01:53:48.597Z,2.20
2022-08-18T01:58:52.265Z,2.20
2022-08-18T02:04:23.350Z,2.63
2022-08-18T02:09:26.162Z,2.57
2022-08-18T02:14:31.338Z,2.50
2022-08-18T02:19:36.697Z,2.17
2022-08-18T02:24:42.199Z,2.90
2022-08-18T02:29:45.862Z,3.17
2022-08-18T02:34:49.587Z,3.27
2022-08-18T02:39:54.714Z,3.37
2022-08-18T02:44:58.479Z,3.27
2022-08-18T02:50:02.167Z,3.23
2022-08-18T02:55:08.203Z,3.83
2022-08-18T03:00:14.295Z,3.13
2022-08-18T03:05:18.644Z,3.80
2022-08-18T03:10:32.743Z,3.57
2022-08-18T03:15:37.915Z,3.50
2022-08-18T03:20:44.111Z,3.50
2022-08-18T03:25:51.511Z,2.87
2022-08-18T03:30:55.162Z,2.70
2022-08-18T03:36:05.335Z,2.80
2022-08-18T03:41:11.177Z,3.03
2022-08-18T03:46:16.937Z,2.80
2022-08-18T03:51:26.622Z,2.90
2022-08-18T03:56:34.510Z,2.83
2022-08-18T04:01:41.171Z,3.23
2022-08-18T04:06:50.100Z,3.13
2022-08-18T04:11:55.673Z,3.93
2022-08-18T04:16:59.892Z,3.73
2022-08-18T04:22:04.378Z,3.90
2022-08-18T04:27:09.402Z,3.70
2022-08-18T04:32:13.144Z,3.77
2022-08-18T04:37:17.200Z,3.47
2022-08-18T04:42:22.218Z,3.67
2022-08-18T04:47:26.186Z,3.43
2022-08-18T04:52:47.047Z,3.87
2022-08-18T04:57:52.513Z,3.13
2022-08-18T05:02:58.160Z,3.93
2022-08-18T05:08:01.846Z,5.10
2022-08-18T05:13:06.856Z,4.27
2022-08-18T05:18:10.643Z,4.83
2022-08-18T05:23:18.370Z,4.80
2022-08-18T05:28:23.592Z,5.20
2022-08-18T05:33:27.326Z,4.93
2022-08-18T05:38:40.179Z,4.67
2022-08-18T05:43:52.151Z,4.60
2022-08-18T05:48:56.079Z,4.80
2022-08-18T05:54:18.105Z,4.70
2022-08-18T05:59:28.593Z,4.27
2022-08-18T06:04:42.424Z,4.13
2022-08-18T06:09:50.866Z,4.40
2022-08-18T06:15:06.035Z,4.73
2022-08-18T06:20:19.390Z,5.17
2022-08-18T06:25:27.937Z,5.70
2022-08-18T06:30:45.558Z,5.23
2022-08-18T06:35:52.130Z,6.03
2022-08-18T06:41:03.069Z,5.97
2022-08-18T06:46:11.960Z,5.73
2022-08-18T06:51:21.115Z,5.57
2022-08-18T06:56:28.436Z,6.20
2022-08-18T07:01:34.301Z,5.93
2022-08-18T07:06:38.322Z,6.50
2022-08-18T07:11:43.324Z,5.77
2022-08-18T07:16:58.715Z,6.77
2022-08-18T07:22:06.560Z,7.07
2022-08-18T07:27:12.870Z,6.57
2022-08-18T07:32:22.797Z,7.73
2022-08-18T07:37:30.479Z,6.70
2022-08-18T07:42:54.446Z,6.13
2022-08-18T07:48:34.779Z,5.73
2022-08-18T07:53:55.852Z,6.40
2022-08-18T07:59:07.924Z,5.37
2022-08-18T08:04:25.852Z,6.30
2022-08-18T08:09:40.912Z,6.83
2022-08-18T08:14:47.746Z,7.10
2022-08-18T08:20:08.869Z,5.67
2022-08-18T08:25:45.312Z,6.13
2022-08-18T08:31:02.108Z,6.43
2022-08-18T08:36:25.538Z,7.53
2022-08-18T08:41:35.403Z,6.13
2022-08-18T08:46:46.600Z,5.73
2022-08-18T08:51:57.949Z,6.50
2022-08-18T08:57:06.706Z,7.27
2022-08-18T09:02:47.116Z,6.83
2022-08-18T09:08:16.391Z,6.53
2022-08-18T09:13:51.207Z,6.03
2022-08-18T09:19:13.713Z,7.07
2022-08-18T09:24:26.782Z,6.73
2022-08-18T09:29:52.184Z,7.67
2022-08-18T09:35:08.128Z,7.27
2022-08-18T09:41:01.174Z,7.77
2022-08-18T09:51:40.147Z,8.27
2022-08-18T10:03:25.879Z,5.80
2022-08-18T10:09:17.705Z,9.60
2022-08-18T10:14:45.777Z,9.23
2022-08-18T10:19:58.930Z,6.90
2022-08-18T10:25:22.199Z,6.10
2022-08-18T10:31:06.572Z,6.23
2022-08-18T10:36:42.556Z,4.30
2022-08-18T10:42:01.419Z,5.27
2022-08-18T10:53:24.265Z,6.00
2022-08-18T10:58:36.645Z,6.30
2022-08-18T11:03:58.996Z,4.93
2022-08-18T11:09:05.490Z,4.40
2022-08-18T11:14:34.050Z,3.57
2022-08-18T11:19:42.098Z,3.97
2022-08-18T11:24:47.815Z,4.13
2022-08-18T11:29:54.568Z,6.27
2022-08-18T11:35:07.930Z,4.80
2022-08-18T11:41:08.999Z,3.53
2022-08-18T11:45:57.992Z,4.00
2022-08-18T11:51:18.158Z,3.93
2022-08-18T12:01:56.022Z,4.23
2022-08-18T12:07:05.118Z,3.83
2022-08-18T12:12:19.170Z,4.13
2022-08-18T12:17:24.995Z,3.17
2022-08-18T12:22:33.113Z,4.23
2022-08-18T12:27:38.152Z,3.83
2022-08-18T12:38:12.957Z,3.23
2022-08-18T12:43:20.108Z,3.40
2022-08-18T12:48:24.541Z,2.90
2022-08-18T12:53:38.243Z,3.53
2022-08-18T12:58:55.378Z,3.10
2022-08-18T13:04:10.941Z,3.30
2022-08-18T13:09:34.896Z,3.00
2022-08-18T13:14:43.672Z,3.40
2022-08-18T13:19:47.571Z,3.23
2022-08-18T13:24:51.198Z,2.60
2022-08-18T13:29:57.775Z,2.33
2022-08-18T13:35:02.643Z,2.70
2022-08-18T13:40:14.382Z,3.37
2022-08-18T13:45:25.566Z,2.77
2022-08-18T13:50:30.095Z,2.83
2022-08-18T13:55:33.822Z,2.80
2022-08-18T14:00:40.773Z,3.27
2022-08-18T14:05:51.967Z,3.23
2022-08-18T14:10:58.688Z,3.23
2022-08-18T14:16:03.853Z,3.40
2022-08-18T14:21:25.078Z,3.20
2022-08-18T14:26:46.214Z,3.00
2022-08-18T14:31:55.311Z,2.93
2022-08-18T14:36:59.559Z,2.37
2022-08-18T14:42:04.385Z,2.67
2022-08-18T14:47:11.814Z,2.67
2022-08-18T14:52:23.475Z,2.27
2022-08-18T14:57:27.178Z,2.10
2022-08-18T15:02:32.946Z,2.33
2022-08-18T15:07:38.514Z,2.07
2022-08-18T15:12:45.181Z,1.97
2022-08-18T15:17:52.941Z,2.07
2022-08-18T15:23:17.568Z,1.70
2022-08-18T15:28:27.938Z,1.40
2022-08-18T15:33:35.961Z,2.47
2022-08-18T15:38:40.346Z,1.80
2022-08-18T15:43:46.273Z,2.00
2022-08-18T15:48:53.112Z,2.20
2022-08-18T15:53:56.710Z,1.83
2022-08-18T15:59:06.908Z,2.03
2022-08-18T16:04:12.097Z,1.80
2022-08-18T16:09:16.666Z,2.20
2022-08-18T16:14:20.386Z,2.27
2022-08-18T16:19:25.901Z,1.70
2022-08-18T16:24:34.084Z,2.13
2022-08-18T16:29:37.973Z,1.80
2022-08-18T16:34:43.468Z,1.80
2022-08-18T16:39:47.076Z,1.83
2022-08-18T16:44:50.753Z,1.60
2022-08-18T16:49:58.566Z,2.07
2022-08-18T16:55:03.048Z,1.83
2022-08-18T17:00:25.562Z,2.07
2022-08-18T17:05:30.558Z,1.77
2022-08-18T17:10:37.846Z,1.83
2022-08-18T17:15:41.540Z,2.03
2022-08-18T17:20:46.931Z,1.93
2022-08-18T17:25:51.789Z,2.10
2022-08-18T17:30:55.353Z,2.10
2022-08-18T17:36:05.705Z,1.77
2022-08-18T17:41:11.922Z,1.47
2022-08-18T17:46:27.547Z,1.90
2022-08-18T17:51:43.382Z,1.83
2022-08-18T17:56:52.575Z,1.70
2022-08-18T18:02:28.565Z,1.77
2022-08-18T18:07:38.681Z,1.53
2022-08-18T18:12:42.522Z,1.83
2022-08-18T18:17:46.134Z,1.63
2022-08-18T18:22:52.073Z,1.90
2022-08-18T18:27:55.780Z,1.90
2022-08-18T18:33:08.048Z,1.70
2022-08-18T18:38:28.920Z,1.63
2022-08-18T18:43:38.102Z,1.50
2022-08-18T18:48:52.426Z,1.93
2022-08-18T18:54:06.263Z,1.70
2022-08-18T18:59:25.039Z,1.70
2022-08-18T19:04:34.893Z,1.53
2022-08-18T19:09:49.802Z,1.63
2022-08-18T19:15:00.270Z,1.70
2022-08-18T19:20:09.779Z,1.83
2022-08-18T19:25:22.050Z,1.70
2022-08-18T19:30:25.741Z,1.47
2022-08-18T19:35:38.534Z,1.70
2022-08-18T19:40:51.169Z,1.47
2022-08-18T19:46:00.466Z,1.70
2022-08-18T19:51:10.178Z,1.80
2022-08-18T19:56:40.217Z,1.30
2022-08-18T20:01:58.664Z,1.43
2022-08-18T20:07:38.288Z,1.73
2022-08-18T20:13:07.479Z,1.57
2022-08-18T20:18:22.583Z,1.63
2022-08-18T20:23:34.524Z,1.53
2022-08-18T20:28:41.642Z,1.83
2022-08-18T20:33:47.552Z,1.70
2022-08-18T20:38:53.089Z,1.70
2022-08-18T20:44:05.722Z,1.90
2022-08-18T20:49:24.069Z,1.63
2022-08-18T20:54:42.457Z,1.53
2022-08-18T21:00:13.354Z,1.43
2022-08-18T21:05:27.688Z,1.77
2022-08-18T21:10:34.040Z,1.80
2022-08-18T21:15:40.237Z,1.80
2022-08-18T21:20:43.930Z,1.80
2022-08-18T21:25:53.770Z,1.60
2022-08-18T21:31:42.176Z,2.00
2022-08-18T21:36:32.151Z,2.03
2022-08-18T21:41:42.420Z,1.97
2022-08-18T21:46:48.896Z,1.93
2022-08-18T21:51:52.780Z,1.97
2022-08-18T21:57:18.873Z,2.07
2022-08-18T22:02:23.887Z,1.93
2022-08-18T22:07:34.714Z,1.87
2022-08-18T22:12:56.800Z,1.80
2022-08-18T22:18:05.397Z,1.70
2022-08-18T22:23:44.395Z,1.63
2022-08-18T22:28:55.348Z,1.70
2022-08-18T22:34:06.303Z,1.60
2022-08-18T22:39:13.659Z,1.60
2022-08-18T22:44:17.319Z,2.00
2022-08-18T22:49:23.446Z,1.70
2022-08-18T22:54:27.229Z,1.80
2022-08-18T22:59:31.515Z,2.20
2022-08-18T23:04:38.801Z,2.10
2022-08-18T23:09:43.415Z,2.10
2022-08-18T23:14:49.526Z,3.00
2022-08-18T23:19:54.798Z,2.50
2022-08-18T23:24:58.561Z,2.57
2022-08-18T23:30:02.172Z,2.57
2022-08-18T23:35:07.643Z,2.73
2022-08-18T23:40:14.893Z,3.13
2022-08-18T23:45:18.847Z,2.80
2022-08-18T23:50:24.240Z,3.20
2022-08-18T23:55:30.747Z,2.77
